Pagrindinis puslapis
METAR-TAF:

METAR-TAF

Oro uostai :

Džordžtaunas, Didysis Kaimanas, Kaimanų salos

platuma: 19-17N, ilguma: 081-21W, Aukštis: 3 m

Dabartinis oras

Ataskaita buvo paskelbta 1 valandą ir 3 minutes, ne 00:00 UTC
Vėjas 3 kt iš Vakarų/Šiaurės Vakarų, svyruoja nuo Vakarų ir Šiaurės/Šiaurės Vakarų
Temperatūra 29°C
Drėgmė 79%
Slėgis 1012 hPa
Matomumas 10 km arba daugiau
Išsisklaidę debesys ne aukštis 1800 ft

METAR: MWCR 100000Z 29003KT 260V340 9999 SCT018 29/25 Q1012

Laikas: 20:03 (01:03 UTC)

Prognozė

Ataskaita buvo paskelbta 8 valandos ir 3 minutes, ne 17:00 UTC
Prognozė galioja nuo 09 metu 18 UTC su 10 metu 18 UTC
Vėjas 6 kt iš Rytų
Matomumas 10 km arba daugiau
Mažai debesys ne aukštis 1800 ft

TAF: MWCR 091700Z 0918/1018 09006KT 9999 FEW018

Orai ataskaitas ir orų prognozės (METAR, TAF).

turimą stotys yra geltonos ir raudonos taškus žemėlapyje.

Perkelti pele per norėdami pamatyti stoties vardą.

Tada spustelėkite, norėdami matyti oro stebėjimo ir prognozės.

Norėdami pakeisti žemėlapį: spustelėkite ant žalios mygtukų su juodo kryžiaus žemyn,; žalią mygtuką su brūkšneliu, jei norite nutolinti; arba žalių rodyklių gretimoms žemėlapius.


METAR-TAF: